Flight Track Log - Related Links

Times and Time Zones

All times are in EDT time to prevent confusion due to time zone crossing. See the AFR39 flight status page for this flight to view local times or setup timezone preferences in your user account.

Time Position Orientation Groundspeed Altitude Reporting Facility
EDT Latitude Longitude Course Direction KTS MPH feet Rate Location/Type
Sun 04:27:00 PM 39.2736 -76.5707 113° Southeast  Level FlightAware Approximate
Sun 04:28:00 PM 39.2553 -76.4082 99° East  Level FlightAware Approximate
Sun 04:29:00 PM 39.2348 -76.2450 99° East  Level FlightAware Approximate
Sun 04:30:00 PM 39.2110 -76.0825 102° East  Level FlightAware Approximate
Sun 04:31:00 PM 39.1840 -75.9209 102° East  Level FlightAware Approximate
Sun 04:32:00 PM 39.2416 -75.7851 47° Northeast  Level FlightAware Approximate
Sun 04:33:00 PM 39.3374 -75.6758 42° Northeast  Level FlightAware Approximate
Sun 04:34:00 PM 39.4307 -75.5624 49° Northeast  Level FlightAware Approximate
Sun 04:35:00 PM 39.5144 -75.4368 49° Northeast  Level FlightAware Approximate
Sun 04:36:00 PM 39.6036 -75.3175 46° Northeast  Level FlightAware Approximate
Sun 04:36:08 PM 39.0000 -77.5333 47° Northeast 203 234 2,700  Level Potomac TRACON
Sun 04:37:00 PM 39.6917 -75.2066 51° Northeast  Level FlightAware Approximate
Sun 04:37:08 PM 39.0500 -77.5500 345° North 259 298 5,000  Level Potomac TRACON
Sun 04:38:00 PM 39.7766 -75.0820 47° Northeast  Level FlightAware Approximate
Sun 04:38:02 PM 39.1167 -77.5333 11° North 281 323 7,000  Level Potomac TRACON
Sun 04:39:00 PM 39.8633 -74.9592 47° Northeast  Level FlightAware Approximate
Sun 04:39:02 PM 39.1667 -77.4333 57° Northeast 301 346 9,000  Level Potomac TRACON
Sun 04:40:00 PM 39.9517 -74.8383 45° Northeast  Level FlightAware Approximate
Sun 04:41:00 PM 40.0338 -74.7160 47° Northeast  Level FlightAware Approximate
Sun 04:41:16 PM 39.2544 -77.2292 61° Northeast 327 376 10,200  Level Washington Center
Sun 04:42:16 PM 39.3039 -77.1097 62° Northeast 346 398 11,300 1,900 Climbing Washington Center
Sun 04:43:16 PM 39.3328 -76.9653 75° East 378 435 14,000 2,182 Climbing Washington Center
Sun 04:44:17 PM 39.3075 -76.8067 102° East 399 459 15,700 2,281 Climbing Washington Center
Sun 04:45:17 PM 39.2881 -76.6456 99° East 430 495 18,600 2,500 Climbing Washington Center
Sun 04:46:17 PM 39.2664 -76.4761 99° East 456 525 20,700 2,083 Climbing Washington Center
Sun 04:47:18 PM 39.2428 -76.2964 100° East 485 558 22,800 1,119 Climbing Washington Center
Sun 04:48:15 PM 39.2228 -76.0953 97° East 511 588 22,900 102 Climbing Washington Center
Sun 04:49:16 PM 39.2067 -75.9158 97° East 511 588 23,000 443 Climbing Washington Center
Sun 04:50:17 PM 39.2864 -75.7578 57° Northeast 481 554 23,800 1,328 Climbing Washington Center
Sun 04:51:18 PM 39.3947 -75.6211 44° Northeast 505 581 25,700 1,210 Climbing Washington Center
Sun 04:52:16 PM 39.5050 -75.4786 45° Northeast 518 596 26,200 1,210 Climbing Washington Center
Sun 04:53:17 PM 39.6153 -75.3356 45° Northeast 536 617 28,100 1,800 Climbing Washington Center
Sun 04:55:06 PM 39.8017 -75.0697 48° Northeast 590 679 31,300 1,976 Climbing New York Center
Sun 04:56:07 PM 39.9094 -74.9142 48° Northeast 590 679 33,700 1,866 Climbing New York Center
Sun 04:57:05 PM 40.0278 -74.7475 47° Northeast 582 670 35,000 610 Climbing New York Center
Sun 04:58:05 PM 40.1369 -74.5992 46° Northeast 568 654 34,900  Descending New York Center
Sun 04:59:05 PM 40.2247 -74.4572 51° Northeast 563 648 35,000 50 Climbing New York Center
Sun 05:00:06 PM 40.3236 -74.2964 51° Northeast 563 648 35,000  Level New York Center
Sun 05:01:06 PM 40.4181 -74.1322 53° Northeast 563 648 35,000  Level New York Center
Sun 05:02:07 PM 40.5142 -73.9703 52° Northeast 568 654 35,000  Level New York Center
Sun 05:03:07 PM 40.6228 -73.7978 50° Northeast 568 654 35,000  Level New York Center
Sun 05:05:14 PM 40.8408 -73.4772 48° Northeast 562 647 35,000  Level Boston Center
Sun 05:06:14 PM 40.9569 -73.3142 47° Northeast 557 641 35,000  Level Boston Center
Sun 05:07:14 PM 41.0644 -73.1614 47° Northeast 550 633 35,000  Level Boston Center
Sun 05:08:14 PM 41.1694 -73.0081 48° Northeast 550 633 35,000  Level Boston Center
Sun 05:09:14 PM 41.2764 -72.8489 48° Northeast 562 647 35,000 -50 Level Boston Center
Sun 05:10:14 PM 41.3789 -72.7028 47° Northeast 577 664 34,900 -50 Descending Boston Center
Sun 05:11:14 PM 41.4981 -72.5619 41° Northeast 571 657 34,900 50 Level Boston Center
Sun 05:12:14 PM 41.6292 -72.4150 40° Northeast 565 650 35,000 45 Climbing Boston Center
Sun 05:13:26 PM 41.7500 -72.2703 42° Northeast 565 650 35,000  Level Boston Center
Sun 05:14:26 PM 41.8956 -72.0969 42° Northeast 565 650 35,000  Level Boston Center
Sun 05:15:26 PM 42.0139 -71.9539 42° Northeast 565 650 35,000  Level Boston Center
Sun 05:16:26 PM 42.1381 -71.8103 41° Northeast 578 665 35,000  Level Boston Center
Sun 05:17:26 PM 42.2519 -71.6744 41° Northeast 583 671 35,000 -50 Level Boston Center
Sun 05:18:26 PM 42.3925 -71.5181 39° Northeast 595 685 34,900 -50 Descending Boston Center
Sun 05:19:26 PM 42.5142 -71.3725 41° Northeast 601 692 34,900  Level Boston Center
Sun 05:20:26 PM 42.6378 -71.2208 42° Northeast 589 678 34,900 50 Level Boston Center
Sun 05:21:26 PM 42.7569 -71.0742 42° Northeast 583 671 35,000 50 Climbing Boston Center
Sun 05:22:26 PM 42.8781 -70.9300 41° Northeast 583 671 35,000  Level Boston Center
Sun 05:23:26 PM 42.9947 -70.7850 42° Northeast 583 671 35,000 -50 Level Boston Center
Sun 05:24:26 PM 43.1136 -70.6369 42° Northeast 583 671 34,900  Descending Boston Center
Sun 05:25:26 PM 43.2339 -70.4881 42° Northeast 583 671 35,000  Climbing Boston Center
Sun 05:26:26 PM 43.3319 -70.3678 42° Northeast 583 671 34,900 -50 Descending Boston Center
Sun 05:27:26 PM 43.4744 -70.1856 43° Northeast 583 671 34,900 50 Level Boston Center
Sun 05:28:26 PM 43.5922 -70.0378 42° Northeast 583 671 35,000 50 Climbing Boston Center
Sun 05:29:26 PM 43.7139 -69.8836 42° Northeast 583 671 35,000  Level Boston Center
Sun 05:30:26 PM 43.8333 -69.7317 43° Northeast 583 671 35,000  Level Boston Center
Sun 05:31:26 PM 43.9547 -69.5761 43° Northeast 583 671 35,000  Level Boston Center
Sun 05:32:26 PM 44.0758 -69.4200 43° Northeast 583 671 35,000  Level Boston Center
Sun 05:33:26 PM 44.1989 -69.2661 42° Northeast 583 671 35,000  Level Boston Center
Sun 05:34:26 PM 44.3172 -69.1058 44° Northeast 583 671 35,000  Level Boston Center
Sun 05:35:26 PM 44.4397 -68.9506 42° Northeast 583 671 35,000  Level Boston Center
Sun 05:36:26 PM 44.5578 -68.7922 44° Northeast 583 671 35,000  Level Boston Center
Sun 05:37:26 PM 44.6800 -68.6356 42° Northeast 583 671 35,000  Level Boston Center
Sun 05:38:26 PM 44.7994 -68.4756 44° Northeast 588 677 35,000  Level Boston Center
Sun 05:39:26 PM 44.9169 -68.3153 44° Northeast 583 671 35,000  Level Boston Center
Sun 05:40:26 PM 45.0361 -68.1569 43° Northeast 583 671 35,000 -50 Level Boston Center
Sun 05:41:26 PM 45.1553 -67.9950 44° Northeast 583 671 34,900  Descending Boston Center
Sun 05:42:26 PM 45.2717 -67.8325 44° Northeast 583 671 35,000 50 Climbing Boston Center
Sun 05:43:26 PM 45.3925 -67.6719 43° Northeast 583 671 35,000  Level Boston Center
Sun 05:44:26 PM 45.5108 -67.5139 43° Northeast 583 671 35,000  Level Boston Center
Sun 05:45:26 PM 45.6311 -67.3550 43° Northeast 583 671 35,000  Level Boston Center
Sun 05:46:38 PM 45.7500 -67.1500 50° Northeast 590 679 35,000  Level Moncton Center
Sun 05:47:38 PM 45.8833 -67.0000 38° Northeast 590 679 35,000  Level Moncton Center
Sun 05:48:38 PM 46.0000 -66.8500 42° Northeast 590 679 35,000  Level Moncton Center
Sun 05:49:38 PM 46.1167 -66.6667 47° Northeast 580 667 35,000  Level Moncton Center
Sun 05:50:38 PM 46.2333 -66.5333 38° Northeast 580 667 35,000  Level Moncton Center
Sun 05:51:38 PM 46.3667 -66.3667 41° Northeast 580 667 35,000  Level Moncton Center
Sun 05:52:38 PM 46.4667 -66.2000 49° Northeast 580 667 35,000  Level Moncton Center
Sun 05:53:38 PM 46.5833 -66.0333 44° Northeast 580 667 35,000  Level Moncton Center
Sun 05:54:38 PM 46.7000 -65.8667 44° Northeast 580 667 35,000  Level Moncton Center
Sun 05:55:38 PM 46.8167 -65.7167 41° Northeast 580 667 35,000  Level Moncton Center
Sun 05:56:38 PM 46.9333 -65.5500 44° Northeast 570 656 35,000  Level Moncton Center
Sun 05:57:38 PM 47.0500 -65.3833 44° Northeast 570 656 35,000  Level Moncton Center
Sun 05:58:38 PM 47.1667 -65.2167 44° Northeast 570 656 35,000  Level Moncton Center
Sun 05:59:38 PM 47.2833 -65.0667 41° Northeast 570 656 35,000  Level Moncton Center
Sun 06:00:38 PM 47.3833 -64.8833 51° Northeast 570 656 35,000  Level Moncton Center
Sun 06:01:38 PM 47.5000 -64.7167 44° Northeast 570 656 35,000  Level Moncton Center
Sun 06:02:38 PM 47.6000 -64.5500 48° Northeast 570 656 35,000  Level Moncton Center
Sun 06:03:38 PM 47.7333 -64.4000 37° Northeast 570 656 35,000  Level Moncton Center
Sun 06:04:38 PM 47.8333 -64.2167 51° Northeast 570 656 35,000  Level Moncton Center
Sun 06:05:38 PM 47.9500 -64.0500 44° Northeast 570 656 35,000  Level Moncton Center
Sun 06:06:38 PM 48.0667 -63.8667 46° Northeast 580 667 35,000  Level Moncton Center
Sun 06:07:38 PM 48.1833 -63.7000 44° Northeast 580 667 35,000  Level Moncton Center
Sun 06:08:38 PM 48.2833 -63.5333 48° Northeast 580 667 35,000  Level Moncton Center
Sun 06:09:38 PM 48.4000 -63.3667 43° Northeast 580 667 35,000  Level Moncton Center
Sun 06:10:38 PM 48.5167 -63.1833 46° Northeast 580 667 35,000  Level Moncton Center
Sun 06:11:38 PM 48.6167 -63.0333 45° Northeast 580 667 35,000  Level Moncton Center
Sun 06:12:38 PM 48.7333 -62.8500 46° Northeast 580 667 35,000  Level Moncton Center
Sun 06:13:38 PM 48.8500 -62.6500 48° Northeast 580 667 35,000  Level Moncton Center
Sun 06:14:37 PM 48.9500 -62.4833 48° Northeast 570 656 35,000  Level Gander Center
Sun 06:14:38 PM 48.9500 -62.4833 48° Northeast 580 667 35,000  Level Moncton Center
Sun 06:15:38 PM 49.0667 -62.3000 46° Northeast 590 679 35,000  Level Moncton Center
Sun 06:16:38 PM 49.1833 -62.1167 46° Northeast 590 679 35,000  Level Moncton Center
Sun 06:17:38 PM 49.2833 -61.9333 50° Northeast 580 667 35,000  Level Moncton Center
Sun 06:18:38 PM 49.4000 -61.7500 46° Northeast 570 656 35,000  Level Moncton Center
Sun 06:19:38 PM 49.5000 -61.5667 50° Northeast 580 667 35,000  Level Moncton Center
Sun 06:20:38 PM 49.6167 -61.4000 43° Northeast 570 656 35,000  Level Moncton Center
Sun 06:21:38 PM 49.7167 -61.2167 50° Northeast 580 667 35,000  Level Moncton Center
Sun 06:22:38 PM 49.8333 -61.0167 48° Northeast 580 667 35,000  Level Moncton Center
Sun 06:23:38 PM 49.9333 -60.8667 44° Northeast 570 656 35,000  Level Moncton Center
Sun 06:24:38 PM 50.0500 -60.6500 50° Northeast 570 656 35,000  Level Moncton Center
Sun 06:25:38 PM 50.1500 -60.4833 47° Northeast 570 656 35,000  Level Moncton Center
Sun 06:26:38 PM 50.2667 -60.2833 48° Northeast 570 656 35,000  Level Moncton Center
Sun 06:27:38 PM 50.3667 -60.1000 49° Northeast 580 667 35,000  Level Moncton Center
Sun 06:28:38 PM 50.4833 -59.9000 47° Northeast 570 656 35,000  Level Moncton Center
Sun 06:29:38 PM 50.5667 -59.7333 52° Northeast 570 656 35,000  Level Moncton Center
Sun 06:30:38 PM 50.6833 -59.5333 47° Northeast 570 656 35,000  Level Moncton Center
Sun 06:31:38 PM 50.7833 -59.3333 52° Northeast 570 656 35,000  Level Moncton Center
Sun 06:32:38 PM 50.8833 -59.1500 49° Northeast 570 656 35,000  Level Moncton Center
Sun 06:33:38 PM 50.9667 -58.9167 60° Northeast 570 656 35,000  Level Moncton Center
Sun 06:34:38 PM 51.0667 -58.7500 46° Northeast 570 656 35,000  Level Moncton Center
Sun 06:35:38 PM 51.1667 -58.5167 56° Northeast 570 656 35,000  Level Moncton Center
Sun 06:36:38 PM 51.2667 -58.3167 51° Northeast 570 656 35,000  Level Moncton Center
Sun 06:37:38 PM 51.3500 -58.1167 56° Northeast 570 656 35,000  Level Moncton Center
Sun 06:38:38 PM 51.4333 -57.9167 56° Northeast 580 667 35,000  Level Moncton Center
Sun 06:39:38 PM 51.5500 -57.6833 51° Northeast 580 667 35,000  Level Moncton Center
Sun 06:40:38 PM 51.6333 -57.4833 56° Northeast 570 656 35,000  Level Moncton Center
Sun 06:41:38 PM 51.7167 -57.2833 56° Northeast 580 667 35,000  Level Moncton Center
Sun 06:42:38 PM 51.8333 -57.0833 47° Northeast 580 667 35,000  Level Moncton Center
Sun 06:43:38 PM 51.9167 -56.8833 56° Northeast 570 656 35,000  Level Moncton Center
Sun 06:44:38 PM 52.0000 -56.6500 60° Northeast 570 656 35,000  Level Moncton Center
Sun 06:45:38 PM 52.0833 -56.4333 58° Northeast 570 656 35,000  Level Moncton Center
Sun 06:46:38 PM 52.2000 -56.2333 46° Northeast 570 656 35,000  Level Moncton Center
Sun 06:47:38 PM 52.2833 -56.0167 58° Northeast 570 656 35,000  Level Moncton Center
Sun 06:48:38 PM 52.3667 -55.8167 56° Northeast 580 667 35,000  Level Moncton Center
Sun 06:49:38 PM 52.4500 -55.5667 61° Northeast 570 656 35,000  Level Moncton Center
Sun 06:50:38 PM 52.5333 -55.3667 56° Northeast 570 656 35,000  Level Moncton Center
Sun 06:51:38 PM 52.6333 -55.1500 53° Northeast 570 656 35,000  Level Moncton Center
Sun 06:52:38 PM 52.7167 -54.9333 58° Northeast 570 656 35,000  Level Moncton Center
Sun 06:53:38 PM 52.8000 -54.7167 57° Northeast 570 656 35,000  Level Moncton Center
Sun 06:54:38 PM 52.8833 -54.5167 55° Northeast 560 644 35,000  Level Moncton Center
Sun 06:55:44 PM 52.9667 -54.2833 59° Northeast 560 644 35,000  Level Gander Center
Sun 06:56:44 PM 53.0667 -54.0333 56° Northeast 560 644 35,000  Level Gander Center
Sun 06:57:44 PM 53.1333 -53.8000 64° Northeast 570 656 35,000  Level Gander Center
Sun 06:58:44 PM 53.1833 -53.5667 70° East 570 656 35,000  Level Gander Center
Sun 06:59:44 PM 53.2333 -53.3167 71° East 570 656 35,000  Level Gander Center
Sun 07:00:44 PM 53.2833 -53.0833 70° East 570 656 35,000  Level Gander Center
Sun 07:01:44 PM 53.3500 -52.8167 67° East 570 656 35,000  Level Gander Center
Sun 07:02:44 PM 53.4167 -52.5667 66° East 570 656 35,000  Level Gander Center
Sun 07:03:44 PM 53.4500 -52.3167 77° East 570 656 35,000  Level Gander Center
Sun 07:04:44 PM 53.5167 -52.0667 66° East 570 656 35,000  Level Gander Center
Sun 07:05:44 PM 53.5667 -51.8000 72° East 570 656 35,000  Level Gander Center
Sun 07:06:44 PM 53.6167 -51.5667 70° East 570 656 35,000  Level Gander Center
Sun 07:07:44 PM 53.6667 -51.3333 70° East 570 656 35,000  Level Gander Center
Sun 07:08:44 PM 53.7333 -51.0500 68° East 570 656 35,000  Level Gander Center
Sun 07:09:44 PM 53.7667 -50.8167 76° East 560 644 35,000  Level Gander Center
Sun 07:10:44 PM 53.8500 -50.5667 60° Northeast 560 644 35,000  Level Gander Center
Sun 07:11:44 PM 53.8667 -50.3167 83° East 560 644 35,000 -9 Level Gander Center
Sun 07:15:00 PM 53.9933 -50.0160 54° Northeast  Level FlightAware Approximate
Sun 07:22:00 PM 54.2189 -48.2657 76° East  Level Estimated
Sun 07:23:00 PM 54.2514 -48.0150 77° East  Level FlightAware Approximate
Sun 07:24:00 PM 54.2834 -47.7639 78° East  Level FlightAware Approximate
Sun 07:25:00 PM 54.3149 -47.5125 78° East  Level FlightAware Approximate
Sun 07:26:00 PM 54.3459 -47.2606 78° East  Level FlightAware Approximate
Sun 07:27:00 PM 54.3764 -47.0084 78° East  Level FlightAware Approximate
Sun 07:28:00 PM 54.4063 -46.7557 78° East  Level FlightAware Approximate
Sun 07:29:00 PM 54.4357 -46.5028 79° East  Level FlightAware Approximate
Sun 07:30:00 PM 54.4645 -46.2495 79° East  Level FlightAware Approximate
Sun 07:31:00 PM 54.4929 -45.9958 79° East  Level FlightAware Approximate
Sun 07:32:00 PM 54.5206 -45.7417 79° East  Level FlightAware Approximate
Sun 07:33:00 PM 54.5479 -45.4873 79° East  Level FlightAware Approximate
Sun 07:34:00 PM 54.5747 -45.2326 80° East  Level FlightAware Approximate
Sun 07:35:00 PM 54.6009 -44.9776 80° East  Level FlightAware Approximate
Sun 07:36:00 PM 54.6265 -44.7222 80° East  Level FlightAware Approximate
Sun 07:37:00 PM 54.6516 -44.4665 80° East  Level FlightAware Approximate
Sun 07:38:00 PM 54.6762 -44.2105 80° East  Level FlightAware Approximate
Sun 07:39:00 PM 54.7003 -43.9542 81° East  Level FlightAware Approximate
Sun 07:40:00 PM 54.7238 -43.6976 81° East  Level FlightAware Approximate
Sun 07:41:00 PM 54.7467 -43.4407 81° East  Level FlightAware Approximate
Sun 07:42:00 PM 54.7692 -43.1835 81° East  Level FlightAware Approximate
Sun 07:43:00 PM 54.7910 -42.9260 82° East  Level FlightAware Approximate
Sun 07:44:00 PM 54.8124 -42.6683 82° East  Level FlightAware Approximate
Sun 07:45:00 PM 54.8331 -42.4102 82° East  Level FlightAware Approximate
Sun 07:46:00 PM 54.8534 -42.1520 82° East  Level FlightAware Approximate
Sun 07:47:00 PM 54.8731 -41.8934 82° East  Level FlightAware Approximate
Sun 07:48:00 PM 54.8922 -41.6346 83° East  Level FlightAware Approximate
Sun 07:49:00 PM 54.9108 -41.3756 83° East  Level FlightAware Approximate
Sun 07:50:00 PM 54.9288 -41.1163 83° East  Level FlightAware Approximate
Sun 07:51:00 PM 54.9463 -40.8568 83° East  Level FlightAware Approximate
Sun 07:52:00 PM 54.9632 -40.5971 83° East  Level FlightAware Approximate
Sun 07:53:00 PM 54.9796 -40.3372 84° East  Level FlightAware Approximate
Sun 07:54:00 PM 54.9954 -40.0770 84° East  Level FlightAware Approximate
Sun 07:55:00 PM 55.0078 -39.8163 86° East  Level Estimated
Sun 07:56:00 PM 55.0177 -39.5551 86° East  Level FlightAware Approximate
Sun 07:57:00 PM 55.0270 -39.2938 86° East  Level FlightAware Approximate
Sun 07:58:00 PM 55.0358 -39.0323 87° East  Level FlightAware Approximate
Sun 07:59:00 PM 55.0440 -38.7708 87° East  Level FlightAware Approximate
Sun 08:00:00 PM 55.0537 -38.5093 87° East  Level Estimated
Sun 08:01:00 PM 55.0609 -38.2476 87° East  Level FlightAware Approximate
Sun 08:02:00 PM 55.0675 -37.9857 87° East  Level FlightAware Approximate
Sun 08:03:00 PM 55.0736 -37.7238 88° East  Level FlightAware Approximate
Sun 08:04:00 PM 55.0791 -37.4618 88° East  Level FlightAware Approximate
Sun 08:05:00 PM 55.0841 -37.1997 88° East  Level FlightAware Approximate
Sun 08:06:00 PM 55.0885 -36.9376 88° East  Level FlightAware Approximate
Sun 08:07:00 PM 55.0923 -36.6754 88° East  Level FlightAware Approximate
Sun 08:08:00 PM 55.0956 -36.4132 89° East  Level FlightAware Approximate
Sun 08:09:00 PM 55.0983 -36.1509 89° East  Level FlightAware Approximate
Sun 08:10:00 PM 55.1004 -35.8886 89° East  Level FlightAware Approximate
Sun 08:11:00 PM 55.1020 -35.6263 89° East  Level FlightAware Approximate
Sun 08:12:00 PM 55.1030 -35.3639 90° East  Level FlightAware Approximate
Sun 08:13:00 PM 55.1035 -35.1016 90° East  Level FlightAware Approximate
Sun 08:14:00 PM 55.1034 -34.8392 90° East  Level FlightAware Approximate
Sun 08:15:00 PM 55.1027 -34.5769 90° East  Level FlightAware Approximate
Sun 08:16:00 PM 55.1015 -34.3145 90° East  Level FlightAware Approximate
Sun 08:17:00 PM 55.0997 -34.0522 91° East  Level FlightAware Approximate
Sun 08:18:00 PM 55.0973 -33.7899 91° East  Level FlightAware Approximate
Sun 08:19:00 PM 55.0943 -33.5277 91° East  Level FlightAware Approximate
Sun 08:20:00 PM 55.0909 -33.2655 91° East  Level FlightAware Approximate
Sun 08:21:00 PM 55.0868 -33.0033 91° East  Level FlightAware Approximate
Sun 08:22:00 PM 55.0822 -32.7412 92° East  Level FlightAware Approximate
Sun 08:23:00 PM 55.0770 -32.4792 92° East  Level FlightAware Approximate
Sun 08:24:00 PM 55.0713 -32.2172 92° East  Level FlightAware Approximate
Sun 08:25:00 PM 55.0649 -31.9553 92° East  Level FlightAware Approximate
Sun 08:26:00 PM 55.0581 -31.6935 93° East  Level FlightAware Approximate
Sun 08:27:00 PM 55.0507 -31.4318 93° East  Level FlightAware Approximate
Sun 08:28:00 PM 55.0427 -31.1702 93° East  Level FlightAware Approximate
Sun 08:29:00 PM 55.0341 -30.9087 93° East  Level FlightAware Approximate
Sun 08:30:00 PM 55.0250 -30.6473 93° East  Level FlightAware Approximate
Sun 08:31:00 PM 55.0153 -30.3860 94° East  Level FlightAware Approximate
Sun 08:32:00 PM 55.0051 -30.1249 94° East  Level FlightAware Approximate
Sun 08:33:00 PM 54.9966 -29.8636 96° East  Level Estimated
Sun 08:34:00 PM 54.9811 -29.6034 96° East  Level FlightAware Approximate
Sun 08:35:00 PM 54.9650 -29.3434 96° East  Level FlightAware Approximate
Sun 08:36:00 PM 54.9484 -29.0836 96° East  Level FlightAware Approximate
Sun 08:37:00 PM 54.9312 -28.8240 96° East  Level FlightAware Approximate
Sun 08:38:00 PM 54.9135 -28.5647 97° East  Level FlightAware Approximate
Sun 08:39:00 PM 54.8952 -28.3056 97° East  Level FlightAware Approximate
Sun 08:40:00 PM 54.8764 -28.0467 97° East  Level FlightAware Approximate
Sun 08:41:00 PM 54.8570 -27.7881 97° East  Level FlightAware Approximate
Sun 08:42:00 PM 54.8371 -27.5297 98° East  Level FlightAware Approximate
Sun 08:43:00 PM 54.8166 -27.2716 98° East  Level FlightAware Approximate
Sun 08:44:00 PM 54.7956 -27.0137 98° East  Level FlightAware Approximate
Sun 08:45:00 PM 54.7740 -26.7562 98° East  Level FlightAware Approximate
Sun 08:46:00 PM 54.7519 -26.4989 98° East  Level FlightAware Approximate
Sun 08:47:00 PM 54.7292 -26.2418 99° East  Level FlightAware Approximate
Sun 08:48:00 PM 54.7060 -25.9851 99° East  Level FlightAware Approximate
Sun 08:49:00 PM 54.6822 -25.7287 99° East  Level FlightAware Approximate
Sun 08:50:00 PM 54.6580 -25.4725 99° East  Level FlightAware Approximate
Sun 08:51:00 PM 54.6331 -25.2167 99° East  Level FlightAware Approximate
Sun 08:52:00 PM 54.6077 -24.9612 100° East  Level FlightAware Approximate
Sun 08:53:00 PM 54.5818 -24.7061 100° East  Level FlightAware Approximate
Sun 08:54:00 PM 54.5571 -24.4672 100° East  Level FlightAware Approximate
Sun 08:55:00 PM 54.5318 -24.2286 100° East  Level FlightAware Approximate
Sun 08:56:00 PM 54.5061 -23.9903 100° East  Level FlightAware Approximate
Sun 08:57:00 PM 54.4800 -23.7523 101° East  Level FlightAware Approximate
Sun 08:58:00 PM 54.4533 -23.5146 101° East  Level FlightAware Approximate
Sun 08:59:00 PM 54.4262 -23.2772 101° East  Level FlightAware Approximate
Sun 09:00:00 PM 54.3986 -23.0401 101° East  Level FlightAware Approximate
Sun 09:01:00 PM 54.3706 -22.8034 101° East  Level FlightAware Approximate
Sun 09:02:00 PM 54.3421 -22.5670 102° East  Level FlightAware Approximate
Sun 09:03:00 PM 54.3131 -22.3309 102° East  Level FlightAware Approximate
Sun 09:04:00 PM 54.2837 -22.0951 102° East  Level FlightAware Approximate
Sun 09:05:00 PM 54.2538 -21.8597 102° East  Level FlightAware Approximate
Sun 09:06:00 PM 54.2235 -21.6246 102° East  Level FlightAware Approximate
Sun 09:07:00 PM 54.1927 -21.3899 103° East  Level FlightAware Approximate
Sun 09:08:00 PM 54.1615 -21.1556 103° East  Level FlightAware Approximate
Sun 09:09:00 PM 54.1298 -20.9216 103° East  Level FlightAware Approximate
Sun 09:10:00 PM 54.0976 -20.6879 103° East  Level FlightAware Approximate
Sun 09:11:00 PM 54.0650 -20.4546 103° East  Level FlightAware Approximate
Sun 09:12:00 PM 54.0319 -20.2217 103° East  Level FlightAware Approximate
Sun 09:13:00 PM 54.0066 -19.9862 97° East  Level Estimated
Sun 09:14:00 PM 53.9897 -19.7486 97° East  Level FlightAware Approximate
Sun 09:15:00 PM 53.9724 -19.5111 97° East  Level FlightAware Approximate
Sun 09:16:00 PM 53.9545 -19.2739 97° East  Level FlightAware Approximate
Sun 09:17:00 PM 53.9363 -19.0369 97° East  Level FlightAware Approximate
Sun 09:18:00 PM 53.9175 -18.8001 98° East  Level FlightAware Approximate
Sun 09:19:00 PM 53.8983 -18.5635 98° East  Level FlightAware Approximate
Sun 09:20:00 PM 53.8787 -18.3271 98° East  Level FlightAware Approximate
Sun 09:21:00 PM 53.8585 -18.0910 98° East  Level FlightAware Approximate
Sun 09:22:00 PM 53.8379 -17.8551 98° East  Level FlightAware Approximate
Sun 09:23:00 PM 53.8169 -17.6194 99° East  Level FlightAware Approximate
Sun 09:24:00 PM 53.7953 -17.3840 99° East  Level FlightAware Approximate
Sun 09:25:00 PM 53.7734 -17.1488 99° East  Level FlightAware Approximate
Sun 09:26:00 PM 53.7509 -16.9138 99° East  Level FlightAware Approximate
Sun 09:27:00 PM 53.7280 -16.6791 99° East  Level FlightAware Approximate
Sun 09:28:00 PM 53.7047 -16.4447 99° East  Level FlightAware Approximate
Sun 09:29:00 PM 53.6809 -16.2106 100° East  Level FlightAware Approximate
Sun 09:30:00 PM 53.6566 -15.9767 100° East  Level FlightAware Approximate
Sun 09:31:00 PM 53.6319 -15.7430 100° East  Level FlightAware Approximate
Sun 09:32:00 PM 53.6067 -15.5097 100° East  Level FlightAware Approximate
Sun 09:33:00 PM 53.5811 -15.2766 100° East  Level FlightAware Approximate
Sun 09:34:00 PM 53.5550 -15.0438 101° East  Level FlightAware Approximate
Sun 09:35:00 PM 53.5174 -14.8156 101° East  Level Estimated
Sun 09:36:00 PM 53.4928 -14.5828 100° East  Level FlightAware Approximate
Sun 09:37:00 PM 53.4677 -14.3502 100° East  Level FlightAware Approximate
Sun 09:38:00 PM 53.4421 -14.1178 100° East  Level FlightAware Approximate
Sun 09:39:00 PM 53.4160 -13.8858 101° East  Level FlightAware Approximate
Sun 09:40:00 PM 53.3896 -13.6540 101° East  Level FlightAware Approximate
Sun 09:41:00 PM 53.3486 -13.4284 102° East  Level Estimated
Sun 09:42:00 PM 53.3201 -13.1978 102° East  Level FlightAware Approximate
Sun 09:43:00 PM 53.2911 -12.9674 102° East  Level FlightAware Approximate
Sun 09:44:00 PM 53.2617 -12.7373 102° East  Level FlightAware Approximate
Sun 09:45:00 PM 53.2318 -12.5075 102° East  Level FlightAware Approximate
Sun 09:46:00 PM 53.2016 -12.2781 102° East  Level FlightAware Approximate
Sun 09:47:00 PM 53.1708 -12.0490 103° East  Level FlightAware Approximate
Sun 09:48:00 PM 53.1397 -11.8202 103° East  Level FlightAware Approximate
Sun 09:49:00 PM 53.1081 -11.5917 103° East  Level FlightAware Approximate
Sun 09:50:00 PM 53.0760 -11.3636 103° East  Level FlightAware Approximate
Sun 09:51:00 PM 53.0435 -11.1359 103° East  Level FlightAware Approximate
Sun 09:51:00 PM 52.9964 -8.9779 103° East 458 527 33,500  Level FlightAware UK
Sun 09:51:18 PM 52.9818 -8.9039 108° East 460 529 33,500  Level FlightAware UK
Sun 09:51:36 PM 52.9670 -8.8293 108° East 464 534 33,500 -167 Level FlightAware UK
Sun 09:51:54 PM 52.9530 -8.7579 108° East 468 539 33,400 -167 Descending FlightAware UK
Sun 09:52:12 PM 52.9386 -8.6853 108° East 466 536 33,400  Level FlightAware UK
Sun 09:52:30 PM 52.9243 -8.6134 108° East 460 529 33,400  Level FlightAware UK
Sun 09:52:48 PM 52.9098 -8.5417 109° East 456 525 33,400 167 Level FlightAware UK
Sun 09:53:06 PM 52.8951 -8.4702 109° East 458 527 33,500  Climbing FlightAware UK
Sun 09:53:24 PM 52.8806 -8.3985 108° East 460 529 33,400  Descending FlightAware UK
Sun 09:53:42 PM 52.8659 -8.3259 109° East 458 527 33,500 167 Climbing FlightAware UK
Sun 09:54:00 PM 52.8512 -8.2541 109° East 462 532 33,500 -167 Level FlightAware UK
Sun 09:54:18 PM 52.8367 -8.1820 108° East 464 534 33,400 -167 Descending FlightAware UK
Sun 09:54:36 PM 52.8222 -8.1099 108° East 462 532 33,400  Level FlightAware UK
Sun 09:54:54 PM 52.8075 -8.0380 109° East 460 529 33,400 167 Level FlightAware UK
Sun 09:55:12 PM 52.7926 -7.9663 109° East 460 529 33,500 167 Climbing FlightAware UK
Sun 09:55:30 PM 52.7777 -7.8950 109° East 460 529 33,500  Level FlightAware UK
Sun 09:55:48 PM 52.7628 -7.8236 109° East 458 527 33,500  Level FlightAware UK
Sun 09:56:06 PM 52.7481 -7.7524 109° East 460 529 33,500  Level FlightAware UK
Sun 09:56:24 PM 52.7331 -7.6804 109° East 462 532 33,500  Level FlightAware UK
Sun 09:56:42 PM 52.7185 -7.6101 109° East 458 527 33,500  Level FlightAware UK
Sun 09:57:00 PM 52.7033 -7.5386 109° East 458 527 33,500  Level FlightAware UK
Sun 09:57:18 PM 52.6883 -7.4680 109° East 460 529 33,500 -167 Level FlightAware UK
Sun 09:57:36 PM 52.6734 -7.3982 109° East 458 527 33,400  Descending FlightAware UK
Sun 09:57:54 PM 52.6583 -7.3273 109° East 456 525 33,500 167 Climbing FlightAware UK
Sun 09:58:12 PM 52.6432 -7.2564 109° East 456 525 33,500  Level FlightAware UK
Sun 09:58:30 PM 52.6281 -7.1854 109° East 460 529 33,500  Level FlightAware UK
Sun 09:58:48 PM 52.6127 -7.1137 109° East 460 529 33,500  Level FlightAware UK
Sun 09:59:06 PM 52.5975 -7.0426 109° East 462 532 33,500  Level FlightAware UK
Sun 09:59:24 PM 52.5820 -6.9717 110° East 462 532 33,500  Level FlightAware UK
Sun 09:59:42 PM 52.5666 -6.9012 110° East 460 529 33,500  Level FlightAware UK
Sun 10:00:00 PM 52.5509 -6.8302 110° East 460 529 33,500  Level FlightAware UK
Sun 10:00:18 PM 52.5356 -6.7610 110° East 462 532 33,500  Level FlightAware UK
Sun 10:00:36 PM 52.5202 -6.6905 110° East 460 529 33,500  Level FlightAware UK
Sun 10:00:54 PM 52.5050 -6.6210 110° East 456 525 33,500  Level FlightAware UK
Sun 10:01:12 PM 52.4899 -6.5526 110° East 456 525 33,500  Level FlightAware UK
Sun 10:01:30 PM 52.4747 -6.4836 110° East 458 527 33,500  Level FlightAware UK
Sun 10:01:48 PM 52.4591 -6.4139 110° East 456 525 33,500  Level FlightAware UK
Sun 10:02:06 PM 52.4436 -6.3451 110° East 456 525 33,500  Level FlightAware UK
Sun 10:02:24 PM 52.4282 -6.2763 110° East 456 525 33,500  Level FlightAware UK
Sun 10:02:42 PM 52.4127 -6.2075 110° East 456 525 33,500  Level FlightAware UK
Sun 10:03:00 PM 52.3971 -6.1387 110° East 454 522 33,500  Level FlightAware UK
Sun 10:03:19 PM 52.3813 -6.0684 110° East 460 529 33,500  Level FlightAware UK
Sun 10:03:36 PM 52.3660 -6.0005 110° East 458 527 33,500  Level FlightAware UK
Sun 10:03:54 PM 52.3501 -5.9321 111° Southeast 458 527 33,500  Level FlightAware UK
Sun 10:04:12 PM 52.3345 -5.8637 111° Southeast 454 522 33,500  Level FlightAware UK
Sun 10:04:30 PM 52.3188 -5.7954 111° Southeast 456 525 33,500  Level FlightAware UK
Sun 10:04:48 PM 52.3032 -5.7272 111° Southeast 456 525 33,500  Level FlightAware UK
Sun 10:05:06 PM 52.2874 -5.6589 111° Southeast 454 522 33,500  Level FlightAware UK
Sun 10:05:24 PM 52.2716 -5.5907 111° Southeast 456 525 33,500  Level FlightAware UK
Sun 10:05:42 PM 52.2559 -5.5224 111° Southeast 460 529 33,500  Level FlightAware UK
Sun 10:06:00 PM 52.2401 -5.4543 111° Southeast 460 529 33,500  Level FlightAware UK
Sun 10:06:18 PM 52.2242 -5.3865 111° Southeast 458 527 33,500  Level FlightAware UK
Sun 10:06:36 PM 52.2081 -5.3189 111° Southeast 458 527 33,500  Level FlightAware UK
Sun 10:06:54 PM 52.1921 -5.2515 111° Southeast 456 525 33,500  Level FlightAware UK
Sun 10:07:13 PM 52.1760 -5.1835 111° Southeast 456 525 33,500  Level FlightAware UK
Sun 10:07:31 PM 52.1601 -5.1164 111° Southeast 456 525 33,500  Level FlightAware UK
Sun 10:07:48 PM 52.1444 -5.0499 111° Southeast 456 525 33,500  Level FlightAware UK
Sun 10:08:07 PM 52.1285 -4.9820 111° Southeast 456 525 33,500  Level FlightAware UK
Sun 10:08:24 PM 52.1125 -4.9157 111° Southeast 458 527 33,500  Level FlightAware UK
Sun 10:08:42 PM 52.0964 -4.8487 111° Southeast 460 529 33,500  Level FlightAware UK
Sun 10:09:01 PM 52.0802 -4.7810 111° Southeast 458 527 33,500  Level FlightAware UK
Sun 10:09:19 PM 52.0641 -4.7142 111° Southeast 458 527 33,500 -167 Level FlightAware UK
Sun 10:09:37 PM 52.0479 -4.6475 112° Southeast 458 527 33,400  Descending FlightAware UK
Sun 10:09:55 PM 52.0317 -4.5808 112° Southeast 458 527 33,500  Climbing FlightAware UK
Sun 10:10:13 PM 52.0156 -4.5141 111° Southeast 456 525 33,400 -167 Descending FlightAware UK
Sun 10:10:31 PM 51.9993 -4.4476 112° Southeast 456 525 33,400 167 Level FlightAware UK
Sun 10:10:49 PM 51.9830 -4.3813 112° Southeast 458 527 33,500  Climbing FlightAware UK
Sun 10:11:07 PM 51.9665 -4.3143 112° Southeast 460 529 33,400 -167 Descending FlightAware UK
Sun 10:11:25 PM 51.9502 -4.2481 112° Southeast 462 532 33,400  Level FlightAware UK
Sun 10:11:43 PM 51.9340 -4.1827 112° Southeast 460 529 33,400 167 Level FlightAware UK
Sun 10:12:01 PM 51.9176 -4.1164 112° Southeast 460 529 33,500 167 Climbing FlightAware UK
Sun 10:12:19 PM 51.9012 -4.0505 112° Southeast 458 527 33,500  Level FlightAware UK
Sun 10:12:37 PM 51.8854 -3.9864 112° Southeast 460 529 33,500  Level FlightAware UK
Sun 10:12:55 PM 51.8691 -3.9216 112° Southeast 460 529 33,500  Level FlightAware UK
Sun 10:13:13 PM 51.8524 -3.8555 112° Southeast 462 532 33,500  Level FlightAware UK
Sun 10:13:31 PM 51.8364 -3.7924 112° Southeast 458 527 33,500  Level FlightAware UK
Sun 10:13:49 PM 51.8202 -3.7280 112° Southeast 458 527 33,500  Level FlightAware UK
Sun 10:14:07 PM 51.8041 -3.6646 112° Southeast 460 529 33,500  Level FlightAware UK
Sun 10:14:25 PM 51.7872 -3.5978 112° Southeast 460 529 33,500  Level FlightAware UK
Sun 10:14:43 PM 51.7709 -3.5341 112° Southeast 458 527 33,500  Level FlightAware UK
Sun 10:15:01 PM 51.7551 -3.4713 112° Southeast 456 525 33,500  Level FlightAware UK
Sun 10:15:19 PM 51.7390 -3.4088 113° Southeast 454 522 33,500  Level FlightAware UK
Sun 10:15:37 PM 51.7226 -3.3448 112° Southeast 458 527 33,500  Level FlightAware UK
Sun 10:15:55 PM 51.7061 -3.2809 113° Southeast 456 525 33,500  Level FlightAware UK
Sun 10:16:13 PM 51.6898 -3.2177 113° Southeast 456 525 33,500  Level FlightAware UK
Sun 10:16:31 PM 51.6734 -3.1545 113° Southeast 456 525 33,500  Level FlightAware UK
Sun 10:16:49 PM 51.6570 -3.0914 113° Southeast 456 525 33,500  Level FlightAware UK
Sun 10:17:07 PM 51.6407 -3.0282 113° Southeast 454 522 33,500  Level FlightAware UK
Sun 10:17:25 PM 51.6242 -2.9650 113° Southeast 456 525 33,500  Level FlightAware UK
Sun 10:17:43 PM 51.6076 -2.9020 113° Southeast 454 522 33,500  Level FlightAware UK
Sun 10:18:01 PM 51.5912 -2.8396 113° Southeast 458 527 33,500  Level FlightAware UK
Sun 10:18:19 PM 51.5746 -2.7765 113° Southeast 456 525 33,500  Level FlightAware UK
Sun 10:18:37 PM 51.5577 -2.7129 113° Southeast 456 525 33,500  Level FlightAware UK
Sun 10:18:55 PM 51.5413 -2.6508 113° Southeast 454 522 33,500  Level FlightAware UK
Sun 10:19:13 PM 51.5247 -2.5882 113° Southeast 454 522 33,500  Level FlightAware UK
Sun 10:19:31 PM 51.5080 -2.5256 113° Southeast 454 522 33,500  Level FlightAware UK
Sun 10:19:50 PM 51.4911 -2.4616 113° Southeast 454 522 33,500  Level FlightAware UK
Sun 10:20:07 PM 51.4745 -2.3996 113° Southeast 454 522 33,500  Level FlightAware UK
Sun 10:20:25 PM 51.4576 -2.3370 113° Southeast 456 525 33,500  Level FlightAware UK
Sun 10:20:44 PM 51.4406 -2.2736 113° Southeast 454 522 33,500  Level FlightAware UK
Sun 10:21:01 PM 51.4240 -2.2124 113° Southeast 454 522 33,500  Level FlightAware UK
Sun 10:21:20 PM 51.4067 -2.1483 113° Southeast 454 522 33,500  Level FlightAware UK
Sun 10:21:38 PM 51.3898 -2.0856 113° Southeast 458 527 33,500  Level FlightAware UK
Sun 10:21:56 PM 51.3727 -2.0229 114° Southeast 456 525 33,500  Level FlightAware UK
Sun 10:22:14 PM 51.3555 -1.9595 114° Southeast 456 525 33,500  Level FlightAware UK
Sun 10:22:32 PM 51.3382 -1.8964 114° Southeast 454 522 33,500  Level FlightAware UK
Sun 10:22:50 PM 51.3214 -1.8353 114° Southeast 452 520 33,500  Level FlightAware UK
Sun 10:23:08 PM 51.3040 -1.7723 114° Southeast 450 518 33,500  Level FlightAware UK
Sun 10:23:26 PM 51.2866 -1.7098 114° Southeast 452 520 33,500  Level FlightAware UK
Sun 10:23:44 PM 51.2692 -1.6463 114° Southeast 454 522 33,500  Level FlightAware UK
Sun 10:24:02 PM 51.2518 -1.5837 114° Southeast 454 522 33,500  Level FlightAware UK
Sun 10:24:20 PM 51.2345 -1.5212 114° Southeast 454 522 33,500  Level FlightAware UK
Sun 10:24:38 PM 51.2168 -1.4574 114° Southeast 456 525 33,500  Level FlightAware UK
Sun 10:24:56 PM 51.1987 -1.3931 114° Southeast 456 525 33,500  Level FlightAware UK
Sun 10:25:14 PM 51.1812 -1.3309 114° Southeast 456 525 33,500  Level FlightAware UK
Sun 10:25:32 PM 51.1635 -1.2681 114° Southeast 456 525 33,500  Level FlightAware UK
Sun 10:25:50 PM 51.1459 -1.2054 114° Southeast 456 525 33,500  Level FlightAware UK
Sun 10:26:08 PM 51.1280 -1.1420 114° Southeast 456 525 33,500  Level FlightAware UK
Sun 10:26:26 PM 51.1101 -1.0789 114° Southeast 456 525 33,500  Level FlightAware UK
Sun 10:26:45 PM 51.0922 -1.0158 114° Southeast 456 525 33,500  Level FlightAware UK
Sun 10:27:02 PM 51.0748 -0.9550 114° Southeast 456 525 33,500  Level FlightAware UK
Sun 10:27:20 PM 51.0569 -0.8921 114° Southeast 456 525 33,500  Level FlightAware UK
Sun 10:27:38 PM 51.0391 -0.8300 114° Southeast 454 522 33,500  Level FlightAware UK
Sun 10:27:56 PM 51.0213 -0.7679 115° Southeast 456 525 33,500  Level FlightAware UK
Sun 10:28:15 PM 51.0032 -0.7053 115° Southeast 458 527 33,500  Level FlightAware UK
Sun 10:28:33 PM 50.9852 -0.6427 115° Southeast 456 525 33,500  Level FlightAware UK
Sun 10:28:51 PM 50.9674 -0.5810 115° Southeast 458 527 33,500  Level FlightAware UK
Sun 10:29:09 PM 50.9495 -0.5193 115° Southeast 456 525 33,500  Level FlightAware UK
Sun 10:29:27 PM 50.9318 -0.4585 115° Southeast 456 525 33,500  Level FlightAware UK
Sun 10:29:45 PM 50.9136 -0.3963 115° Southeast 456 525 33,500  Level FlightAware UK
Sun 10:30:03 PM 50.8953 -0.3335 115° Southeast 454 522 33,500  Level FlightAware UK
Sun 10:30:21 PM 50.8777 -0.2736 115° Southeast 456 525 33,500  Level FlightAware UK
Sun 10:30:39 PM 50.8593 -0.2108 115° Southeast 456 525 33,500  Level FlightAware UK
Sun 10:30:57 PM 50.8409 -0.1497 115° Southeast 456 525 33,500  Level FlightAware UK
Sun 10:31:15 PM 50.8180 -0.0927 122° Southeast 456 525 33,500  Level FlightAware UK
Sun 10:31:33 PM 50.7934 -0.0385 126° Southeast 456 525 33,500 -333 Level FlightAware UK
Sun 10:31:51 PM 50.7662 0.0131 130° Southeast 458 527 33,300 -1,167 Descending FlightAware UK
Sun 10:32:09 PM 50.7368 0.0614 134° Southeast 456 525 32,800 -1,833 Descending FlightAware UK
Sun 10:32:27 PM 50.7049 0.1066 138° Southeast 456 525 32,200 -2,000 Descending FlightAware UK
Sun 10:32:45 PM 50.6737 0.1495 139° Southeast 454 522 31,600 -2,000 Descending FlightAware UK
Sun 10:33:03 PM 50.6426 0.1918 139° Southeast 450 518 31,000 -2,000 Descending FlightAware UK
Sun 10:33:21 PM 50.6118 0.2339 139° Southeast 450 518 30,400 -2,000 Descending FlightAware UK
Sun 10:33:39 PM 50.5821 0.2743 139° Southeast 446 513 29,800 -1,946 Descending FlightAware UK
Sun 10:33:58 PM 50.5510 0.3167 139° Southeast 438 504 29,200 -1,784 Descending FlightAware UK
Sun 10:34:16 PM 50.5211 0.3575 139° Southeast 436 502 28,700 -1,833 Descending FlightAware UK
Sun 10:34:34 PM 50.4912 0.3984 139° Southeast 434 499 28,100 -2,000 Descending FlightAware UK
Sun 10:34:52 PM 50.4616 0.4390 139° Southeast 426 490 27,500 -1,833 Descending FlightAware UK
Sun 10:35:10 PM 50.4334 0.4777 139° Southeast 418 481 27,000 -1,833 Descending FlightAware UK
Sun 10:35:28 PM 50.4047 0.5168 139° Southeast 414 476 26,400 -1,833 Descending FlightAware UK
Sun 10:35:46 PM 50.3762 0.5556 139° Southeast 410 472 25,900 -1,667 Descending FlightAware UK
Sun 10:36:04 PM 50.3480 0.5942 139° Southeast 408 470 25,400 -1,833 Descending FlightAware UK
Sun 10:36:22 PM 50.3198 0.6324 139° Southeast 406 467 24,800 -1,543 Descending FlightAware UK
Sun 10:36:39 PM 50.2922 0.6695 139° Southeast 404 465 24,500 -686 Descending FlightAware UK
Sun 10:36:57 PM 50.2643 0.7073 139° Southeast 404 465 24,400 -162 Descending FlightAware UK
Sun 10:37:16 PM 50.2358 0.7461 139° Southeast 406 467 24,400  Level FlightAware UK
Sun 10:37:34 PM 50.2037 0.7734 151° Southeast 408 470 24,400  Level FlightAware UK
Sun 10:37:52 PM 50.1713 0.8000 152° Southeast 408 470 24,400  Level FlightAware UK
Sun 10:38:10 PM 50.1388 0.8267 152° Southeast 408 470 24,400  Level FlightAware UK
Sun 10:38:28 PM 50.1067 0.8545 151° Southeast 408 470 24,400 171 Level FlightAware UK
Sun 10:38:45 PM 50.0753 0.8831 150° Southeast 408 470 24,500  Climbing FlightAware UK
Sun 10:39:03 PM 50.0441 0.9124 149° Southeast 408 470 24,400  Descending FlightAware UK
Sun 10:39:21 PM 50.0121 0.9421 149° Southeast 408 470 24,500 -333 Climbing FlightAware UK
Sun 10:39:39 PM 49.9806 0.9714 149° Southeast 406 467 24,200 -1,500 Descending FlightAware UK
Sun 10:39:57 PM 49.9497 1.0007 149° Southeast 404 465 23,600 -2,000 Descending FlightAware UK
Sun 10:40:15 PM 49.9184 1.0302 149° Southeast 398 458 23,000 -1,784 Descending FlightAware UK
Sun 10:40:34 PM 49.8872 1.0590 149° Southeast 396 456 22,500 -1,833 Descending FlightAware UK
Sun 10:40:51 PM 49.8575 1.0868 149° Southeast 392 451 21,900 -1,833 Descending FlightAware UK
Sun 10:41:10 PM 49.8259 1.1144 151° Southeast 390 449 21,400 -1,784 Descending FlightAware UK
Sun 10:41:28 PM 49.7951 1.1411 151° Southeast 388 447 20,800 -1,833 Descending FlightAware UK
Sun 10:41:46 PM 49.7645 1.1678 151° Southeast 386 444 20,300 -1,667 Descending FlightAware UK
Sun 10:42:04 PM 49.7341 1.1942 151° Southeast 384 442 19,800 -2,833 Descending FlightAware UK
Sun 10:42:22 PM 49.7037 1.2205 151° Southeast 396 456 18,600 -3,086 Descending FlightAware UK
Sun 10:42:39 PM 49.6731 1.2471 151° Southeast 402 463 18,000 -1,333 Descending FlightAware UK
Sun 10:42:58 PM 49.6418 1.2748 150° Southeast 386 444 17,800 -1,459 Descending FlightAware UK
Sun 10:43:16 PM 49.6119 1.3013 150° Southeast 384 442 17,100 -2,057 Descending FlightAware UK
Sun 10:43:33 PM 49.5823 1.3271 151° Southeast 382 440 16,600 -1,833 Descending FlightAware UK
Sun 10:43:52 PM 49.5521 1.3532 151° Southeast 380 437 16,000 -1,833 Descending FlightAware UK
Sun 10:44:09 PM 49.5227 1.3788 151° Southeast 380 437 15,500 -1,833 Descending FlightAware UK
Sun 10:44:28 PM 49.4925 1.4048 151° Southeast 376 433 14,900 -1,946 Descending FlightAware UK
Sun 10:44:46 PM 49.4633 1.4299 151° Southeast 376 433 14,300 -1,667 Descending FlightAware UK
Sun 10:45:04 PM 49.4347 1.4550 150° Southeast 372 428 13,900 -1,667 Descending FlightAware UK
Sun 10:45:22 PM 49.4069 1.4792 150° Southeast 368 423 13,300 -1,833 Descending FlightAware UK
Sun 10:45:40 PM 49.3781 1.5034 151° Southeast 366 421 12,800 -1,667 Descending FlightAware UK
Sun 10:45:58 PM 49.3496 1.5280 151° Southeast 362 417 12,300 -1,667 Descending FlightAware UK
Sun 10:46:16 PM 49.3238 1.5557 145° Southeast 360 414 11,800 -1,667 Descending FlightAware UK
Sun 10:46:34 PM 49.3050 1.5955 126° Southeast 356 410 11,300 -1,333 Descending FlightAware UK
Sun 10:46:52 PM 49.2968 1.6430 105° East 348 400 11,000 -833 Descending FlightAware UK
Sun 10:47:10 PM 49.2946 1.6904 94° East 334 384 10,800 -1,000 Descending FlightAware UK
Sun 10:47:28 PM 49.2918 1.7367 95° East 332 382 10,400 -667 Descending FlightAware UK
Sun 10:47:46 PM 49.2897 1.7843 94° East 334 384 10,400  Level FlightAware UK
Sun 10:48:04 PM 49.2881 1.8324 93° East 334 384 10,400  Level FlightAware UK
Sun 10:48:22 PM 49.2863 1.8785 94° East 334 384 10,400  Level FlightAware UK
Sun 10:48:40 PM 49.2842 1.9254 94° East 334 384 10,400  Level FlightAware UK
Sun 10:48:58 PM 49.2820 1.9728 94° East 334 384 10,400  Level FlightAware UK
Sun 10:49:16 PM 49.2799 2.0195 94° East 336 387 10,400  Level FlightAware UK
Sun 10:49:34 PM 49.2775 2.0666 94° East 334 384 10,400  Level FlightAware UK
Sun 10:49:52 PM 49.2751 2.1129 95° East 334 384 10,400  Level FlightAware UK
Sun 10:50:10 PM 49.2730 2.1610 94° East 334 384 10,400 167 Level FlightAware UK
Sun 10:50:28 PM 49.2706 2.2088 94° East 334 384 10,500 167 Climbing FlightAware UK
Sun 10:50:46 PM 49.2681 2.2542 95° East 334 384 10,500 -167 Level FlightAware UK
Sun 10:51:04 PM 49.2658 2.3011 94° East 330 380 10,400 -167 Descending FlightAware UK
Sun 10:51:22 PM 49.2638 2.3471 94° East 318 366 10,400 167 Level FlightAware UK
Sun 10:51:40 PM 49.2626 2.3931 92° East 302 348 10,500 167 Climbing FlightAware UK
Sun 10:51:58 PM 49.2618 2.4392 91° East 302 348 10,500 -1,222 Level FlightAware UK
Sun 10:52:34 PM 49.2513 2.5054 104° East 292 336 9,400 -1,222 Descending FlightAware UK
Sun 10:52:52 PM 49.2467 2.5408 101° East 292 336 9,400  Level FlightAware UK
Sun 10:54:00 PM 49.0841 2.5472 179° South  Level Estimated
Sun 11:01:00 PM 49.0128 2.5500 179° South  Level Estimated
Sun 11:02:00 PM 49.0128 2.5500 180° South  Level Estimated
Sun 11:03:00 PM 49.0128 2.5500 180° South  Level Estimated
Sun 11:04:00 PM 49.0128 2.5500 180° South  Level Estimated
Sun 11:05:00 PM 49.0128 2.5500 180° South  Level Estimated
Sun 11:06:00 PM 49.0128 2.5500 180° South  Level Estimated
Sun 11:07:00 PM 49.0128 2.5500 180° South  Level Estimated
Sun 11:08:00 PM 49.0128 2.5500 180° South  Level Estimated
Sun 11:09:00 PM 49.0128 2.5500 180° South  Level Estimated
Sun 11:10:00 PM 49.0128 2.5500 180° South  Level Estimated
Sun 11:11:00 PM 49.0128 2.5500 180° South  Level Estimated
Sun 11:12:00 PM 49.0128 2.5500 180° South  Level Estimated
Sun 11:13:00 PM 49.0128 2.5500 180° South  Level Estimated
Sun 11:14:00 PM 49.0128 2.5500 180° South  Level Estimated
Sun 11:15:00 PM 49.0128 2.5500 180° South  Level Estimated

Login

Don't have an account? Register now (free) for customized features, flight alerts, and more!